sensor_id;sensor_type;location;lat;lon;timestamp;P1;durP1;ratioP1;P2;durP2;ratioP2
38611;SDS011;24368;52.156;20.788;2024-01-10T00:01:28;47.60;;;23.70;;
38611;SDS011;24368;52.156;20.788;2024-01-10T00:06:30;47.30;;;23.90;;
38611;SDS011;24368;52.156;20.788;2024-01-10T00:11:32;42.10;;;22.80;;
38611;SDS011;24368;52.156;20.788;2024-01-10T00:16:34;51.70;;;26.70;;
38611;SDS011;24368;52.156;20.788;2024-01-10T00:21:35;61.70;;;30.80;;
38611;SDS011;24368;52.156;20.788;2024-01-10T00:26:37;56.20;;;31.10;;
38611;SDS011;24368;52.156;20.788;2024-01-10T00:31:39;38.20;;;22.00;;
38611;SDS011;24368;52.156;20.788;2024-01-10T00:36:41;38.10;;;19.40;;
38611;SDS011;24368;52.156;20.788;2024-01-10T00:41:43;46.20;;;24.40;;
38611;SDS011;24368;52.156;20.788;2024-01-10T00:46:45;53.40;;;27.00;;
38611;SDS011;24368;52.156;20.788;2024-01-10T00:51:46;45.60;;;22.80;;
38611;SDS011;24368;52.156;20.788;2024-01-10T00:56:48;36.80;;;20.40;;
38611;SDS011;24368;52.156;20.788;2024-01-10T01:01:52;60.10;;;31.30;;
38611;SDS011;24368;52.156;20.788;2024-01-10T01:06:54;55.70;;;29.70;;
38611;SDS011;24368;52.156;20.788;2024-01-10T01:11:56;56.40;;;29.60;;
38611;SDS011;24368;52.156;20.788;2024-01-10T01:16:57;62.50;;;29.40;;
38611;SDS011;24368;52.156;20.788;2024-01-10T01:21:59;50.50;;;27.70;;
38611;SDS011;24368;52.156;20.788;2024-01-10T01:27:02;49.00;;;29.00;;
38611;SDS011;24368;52.156;20.788;2024-01-10T01:32:04;47.80;;;28.40;;
38611;SDS011;24368;52.156;20.788;2024-01-10T01:37:06;60.80;;;29.40;;
38611;SDS011;24368;52.156;20.788;2024-01-10T01:42:08;41.20;;;22.50;;
38611;SDS011;24368;52.156;20.788;2024-01-10T01:47:10;56.90;;;29.20;;
38611;SDS011;24368;52.156;20.788;2024-01-10T01:52:12;55.60;;;29.40;;
38611;SDS011;24368;52.156;20.788;2024-01-10T01:57:14;58.60;;;29.30;;
38611;SDS011;24368;52.156;20.788;2024-01-10T02:02:16;54.20;;;29.00;;
38611;SDS011;24368;52.156;20.788;2024-01-10T02:07:19;54.80;;;30.10;;
38611;SDS011;24368;52.156;20.788;2024-01-10T02:12:21;54.50;;;28.30;;
38611;SDS011;24368;52.156;20.788;2024-01-10T02:17:22;54.50;;;27.20;;
38611;SDS011;24368;52.156;20.788;2024-01-10T02:22:24;58.20;;;29.80;;
38611;SDS011;24368;52.156;20.788;2024-01-10T02:27:26;53.90;;;30.50;;
38611;SDS011;24368;52.156;20.788;2024-01-10T02:32:28;47.60;;;26.20;;
38611;SDS011;24368;52.156;20.788;2024-01-10T02:37:30;51.20;;;27.50;;
38611;SDS011;24368;52.156;20.788;2024-01-10T02:42:32;57.90;;;30.00;;
38611;SDS011;24368;52.156;20.788;2024-01-10T02:47:34;50.00;;;28.20;;
38611;SDS011;24368;52.156;20.788;2024-01-10T02:52:37;47.90;;;25.30;;
38611;SDS011;24368;52.156;20.788;2024-01-10T02:57:39;55.40;;;29.90;;
38611;SDS011;24368;52.156;20.788;2024-01-10T03:02:41;35.00;;;18.70;;
38611;SDS011;24368;52.156;20.788;2024-01-10T03:07:43;50.10;;;30.10;;
38611;SDS011;24368;52.156;20.788;2024-01-10T03:12:45;28.30;;;16.70;;
38611;SDS011;24368;52.156;20.788;2024-01-10T03:17:46;51.10;;;27.00;;
38611;SDS011;24368;52.156;20.788;2024-01-10T03:22:48;59.20;;;30.00;;
38611;SDS011;24368;52.156;20.788;2024-01-10T03:27:50;58.50;;;30.90;;
38611;SDS011;24368;52.156;20.788;2024-01-10T03:32:51;49.50;;;26.10;;
38611;SDS011;24368;52.156;20.788;2024-01-10T03:37:53;52.20;;;27.60;;
38611;SDS011;24368;52.156;20.788;2024-01-10T03:42:56;56.80;;;28.40;;
38611;SDS011;24368;52.156;20.788;2024-01-10T03:47:58;50.70;;;25.60;;
38611;SDS011;24368;52.156;20.788;2024-01-10T03:52:59;49.90;;;27.90;;
38611;SDS011;24368;52.156;20.788;2024-01-10T03:58:01;53.60;;;26.70;;
38611;SDS011;24368;52.156;20.788;2024-01-10T04:03:03;50.70;;;26.90;;
38611;SDS011;24368;52.156;20.788;2024-01-10T04:08:05;47.50;;;24.20;;
38611;SDS011;24368;52.156;20.788;2024-01-10T04:13:08;49.70;;;24.90;;
38611;SDS011;24368;52.156;20.788;2024-01-10T04:18:10;52.90;;;27.60;;
38611;SDS011;24368;52.156;20.788;2024-01-10T04:23:11;44.70;;;23.90;;
38611;SDS011;24368;52.156;20.788;2024-01-10T04:28:13;52.20;;;26.90;;
38611;SDS011;24368;52.156;20.788;2024-01-10T04:33:15;48.10;;;26.90;;
38611;SDS011;24368;52.156;20.788;2024-01-10T04:38:17;48.80;;;26.30;;
38611;SDS011;24368;52.156;20.788;2024-01-10T04:43:19;55.40;;;27.60;;
38611;SDS011;24368;52.156;20.788;2024-01-10T04:48:21;46.30;;;24.30;;
38611;SDS011;24368;52.156;20.788;2024-01-10T04:53:23;53.60;;;29.70;;
38611;SDS011;24368;52.156;20.788;2024-01-10T04:58:25;52.80;;;30.30;;
38611;SDS011;24368;52.156;20.788;2024-01-10T05:03:27;21.00;;;12.80;;
38611;SDS011;24368;52.156;20.788;2024-01-10T05:08:29;44.60;;;25.60;;
38611;SDS011;24368;52.156;20.788;2024-01-10T05:13:31;37.40;;;19.30;;
38611;SDS011;24368;52.156;20.788;2024-01-10T05:18:32;28.70;;;16.90;;
38611;SDS011;24368;52.156;20.788;2024-01-10T05:23:34;51.60;;;29.20;;
38611;SDS011;24368;52.156;20.788;2024-01-10T05:28:37;52.10;;;28.70;;
38611;SDS011;24368;52.156;20.788;2024-01-10T05:33:38;34.90;;;18.00;;
38611;SDS011;24368;52.156;20.788;2024-01-10T05:38:40;47.70;;;27.60;;
38611;SDS011;24368;52.156;20.788;2024-01-10T05:43:42;33.80;;;19.70;;
38611;SDS011;24368;52.156;20.788;2024-01-10T05:48:45;48.20;;;25.10;;
38611;SDS011;24368;52.156;20.788;2024-01-10T05:53:48;49.20;;;26.60;;
38611;SDS011;24368;52.156;20.788;2024-01-10T05:58:49;40.00;;;23.00;;
38611;SDS011;24368;52.156;20.788;2024-01-10T06:03:51;48.80;;;25.60;;
38611;SDS011;24368;52.156;20.788;2024-01-10T06:08:53;45.20;;;24.10;;
38611;SDS011;24368;52.156;20.788;2024-01-10T06:13:55;51.10;;;29.00;;
38611;SDS011;24368;52.156;20.788;2024-01-10T06:18:59;53.60;;;30.00;;
38611;SDS011;24368;52.156;20.788;2024-01-10T06:24:01;47.10;;;27.60;;
38611;SDS011;24368;52.156;20.788;2024-01-10T06:29:02;49.80;;;26.00;;
38611;SDS011;24368;52.156;20.788;2024-01-10T06:34:04;56.90;;;29.60;;
38611;SDS011;24368;52.156;20.788;2024-01-10T06:39:06;52.80;;;28.70;;
38611;SDS011;24368;52.156;20.788;2024-01-10T06:44:14;54.40;;;30.60;;
38611;SDS011;24368;52.156;20.788;2024-01-10T06:49:18;47.80;;;26.90;;
38611;SDS011;24368;52.156;20.788;2024-01-10T06:54:20;50.60;;;26.40;;
38611;SDS011;24368;52.156;20.788;2024-01-10T06:59:22;45.20;;;20.00;;
38611;SDS011;24368;52.156;20.788;2024-01-10T07:04:24;41.50;;;21.80;;
38611;SDS011;24368;52.156;20.788;2024-01-10T07:09:26;52.90;;;26.60;;
38611;SDS011;24368;52.156;20.788;2024-01-10T07:14:28;52.20;;;27.60;;
38611;SDS011;24368;52.156;20.788;2024-01-10T07:19:30;48.30;;;25.70;;
38611;SDS011;24368;52.156;20.788;2024-01-10T07:24:32;48.90;;;24.50;;
38611;SDS011;24368;52.156;20.788;2024-01-10T07:29:35;49.30;;;27.70;;
38611;SDS011;24368;52.156;20.788;2024-01-10T07:34:38;44.40;;;23.90;;
38611;SDS011;24368;52.156;20.788;2024-01-10T07:39:40;49.20;;;27.90;;
38611;SDS011;24368;52.156;20.788;2024-01-10T07:44:42;44.30;;;25.30;;
38611;SDS011;24368;52.156;20.788;2024-01-10T07:49:44;32.30;;;15.40;;
38611;SDS011;24368;52.156;20.788;2024-01-10T07:54:45;50.70;;;28.00;;
38611;SDS011;24368;52.156;20.788;2024-01-10T07:59:47;37.90;;;19.50;;
38611;SDS011;24368;52.156;20.788;2024-01-10T08:04:49;36.50;;;19.40;;
38611;SDS011;24368;52.156;20.788;2024-01-10T08:09:51;52.10;;;26.10;;
38611;SDS011;24368;52.156;20.788;2024-01-10T08:14:53;36.90;;;21.60;;
38611;SDS011;24368;52.156;20.788;2024-01-10T08:19:55;41.00;;;23.80;;
38611;SDS011;24368;52.156;20.788;2024-01-10T08:24:56;40.50;;;23.30;;
38611;SDS011;24368;52.156;20.788;2024-01-10T08:29:58;46.90;;;24.10;;
38611;SDS011;24368;52.156;20.788;2024-01-10T08:35:00;30.70;;;18.00;;
38611;SDS011;24368;52.156;20.788;2024-01-10T08:40:03;48.40;;;28.00;;
38611;SDS011;24368;52.156;20.788;2024-01-10T08:45:11;53.30;;;27.20;;
38611;SDS011;24368;52.156;20.788;2024-01-10T08:50:13;50.80;;;29.40;;
38611;SDS011;24368;52.156;20.788;2024-01-10T08:55:15;55.50;;;29.60;;
38611;SDS011;24368;52.156;20.788;2024-01-10T09:00:17;49.50;;;27.50;;
38611;SDS011;24368;52.156;20.788;2024-01-10T09:05:19;40.00;;;22.20;;
38611;SDS011;24368;52.156;20.788;2024-01-10T09:10:20;46.80;;;23.40;;
38611;SDS011;24368;52.156;20.788;2024-01-10T09:15:29;46.70;;;26.80;;
38611;SDS011;24368;52.156;20.788;2024-01-10T09:20:31;45.40;;;25.10;;
38611;SDS011;24368;52.156;20.788;2024-01-10T09:25:33;30.80;;;18.40;;
38611;SDS011;24368;52.156;20.788;2024-01-10T09:30:34;31.10;;;18.40;;
38611;SDS011;24368;52.156;20.788;2024-01-10T09:35:36;45.10;;;25.80;;
38611;SDS011;24368;52.156;20.788;2024-01-10T09:40:38;29.00;;;16.10;;
38611;SDS011;24368;52.156;20.788;2024-01-10T09:45:43;41.90;;;25.30;;
38611;SDS011;24368;52.156;20.788;2024-01-10T09:50:47;49.60;;;27.90;;
38611;SDS011;24368;52.156;20.788;2024-01-10T09:55:53;47.50;;;25.10;;
38611;SDS011;24368;52.156;20.788;2024-01-10T10:00:58;53.30;;;28.90;;
38611;SDS011;24368;52.156;20.788;2024-01-10T10:06:00;47.70;;;28.00;;
38611;SDS011;24368;52.156;20.788;2024-01-10T10:11:02;53.70;;;26.90;;
38611;SDS011;24368;52.156;20.788;2024-01-10T10:16:04;50.20;;;28.70;;
38611;SDS011;24368;52.156;20.788;2024-01-10T10:21:10;55.70;;;30.50;;
38611;SDS011;24368;52.156;20.788;2024-01-10T10:26:15;35.90;;;21.00;;
38611;SDS011;24368;52.156;20.788;2024-01-10T10:31:21;43.40;;;24.70;;
38611;SDS011;24368;52.156;20.788;2024-01-10T10:36:25;42.40;;;24.40;;
38611;SDS011;24368;52.156;20.788;2024-01-10T10:41:27;55.80;;;32.70;;
38611;SDS011;24368;52.156;20.788;2024-01-10T10:51:35;60.10;;;33.20;;
38611;SDS011;24368;52.156;20.788;2024-01-10T10:56:38;56.30;;;33.30;;
38611;SDS011;24368;52.156;20.788;2024-01-10T11:01:43;50.50;;;29.50;;
38611;SDS011;24368;52.156;20.788;2024-01-10T11:06:46;53.20;;;32.10;;
38611;SDS011;24368;52.156;20.788;2024-01-10T11:17:14;48.80;;;29.40;;
38611;SDS011;24368;52.156;20.788;2024-01-10T11:27:51;47.70;;;31.60;;
38611;SDS011;24368;52.156;20.788;2024-01-10T11:32:56;48.20;;;33.00;;
38611;SDS011;24368;52.156;20.788;2024-01-10T11:37:59;50.40;;;35.90;;
38611;SDS011;24368;52.156;20.788;2024-01-10T11:43:02;47.70;;;36.90;;
38611;SDS011;24368;52.156;20.788;2024-01-10T11:48:06;48.10;;;38.70;;
38611;SDS011;24368;52.156;20.788;2024-01-10T11:53:08;48.90;;;39.60;;
38611;SDS011;24368;52.156;20.788;2024-01-10T11:58:11;44.00;;;34.80;;
38611;SDS011;24368;52.156;20.788;2024-01-10T12:03:12;45.10;;;35.70;;
38611;SDS011;24368;52.156;20.788;2024-01-10T12:08:16;46.50;;;36.10;;
38611;SDS011;24368;52.156;20.788;2024-01-10T12:13:17;44.90;;;35.20;;
38611;SDS011;24368;52.156;20.788;2024-01-10T12:18:19;47.80;;;38.30;;
38611;SDS011;24368;52.156;20.788;2024-01-10T12:23:23;41.40;;;28.60;;
38611;SDS011;24368;52.156;20.788;2024-01-10T12:28:25;46.60;;;36.70;;
38611;SDS011;24368;52.156;20.788;2024-01-10T12:33:27;48.30;;;36.90;;
38611;SDS011;24368;52.156;20.788;2024-01-10T12:38:29;51.40;;;38.70;;
38611;SDS011;24368;52.156;20.788;2024-01-10T12:43:31;51.90;;;37.30;;
38611;SDS011;24368;52.156;20.788;2024-01-10T12:48:33;49.30;;;37.20;;
38611;SDS011;24368;52.156;20.788;2024-01-10T12:53:42;53.20;;;32.20;;
38611;SDS011;24368;52.156;20.788;2024-01-10T12:58:45;54.80;;;35.30;;
38611;SDS011;24368;52.156;20.788;2024-01-10T13:03:47;49.10;;;34.80;;
38611;SDS011;24368;52.156;20.788;2024-01-10T13:08:50;53.00;;;33.30;;
38611;SDS011;24368;52.156;20.788;2024-01-10T13:13:52;52.50;;;33.80;;
38611;SDS011;24368;52.156;20.788;2024-01-10T13:18:54;54.10;;;36.30;;
38611;SDS011;24368;52.156;20.788;2024-01-10T13:23:58;51.40;;;34.90;;
38611;SDS011;24368;52.156;20.788;2024-01-10T13:29:00;54.40;;;35.70;;
38611;SDS011;24368;52.156;20.788;2024-01-10T13:34:04;49.50;;;33.80;;
38611;SDS011;24368;52.156;20.788;2024-01-10T13:39:06;56.80;;;34.90;;
38611;SDS011;24368;52.156;20.788;2024-01-10T13:44:08;53.80;;;36.30;;
38611;SDS011;24368;52.156;20.788;2024-01-10T13:49:11;49.30;;;31.80;;
38611;SDS011;24368;52.156;20.788;2024-01-10T13:54:13;53.40;;;35.30;;
38611;SDS011;24368;52.156;20.788;2024-01-10T13:59:14;52.60;;;34.10;;
38611;SDS011;24368;52.156;20.788;2024-01-10T14:04:16;56.90;;;34.30;;
38611;SDS011;24368;52.156;20.788;2024-01-10T14:09:18;60.20;;;39.60;;
38611;SDS011;24368;52.156;20.788;2024-01-10T14:14:20;56.00;;;33.90;;
38611;SDS011;24368;52.156;20.788;2024-01-10T14:19:22;57.30;;;38.80;;
38611;SDS011;24368;52.156;20.788;2024-01-10T14:24:23;57.40;;;36.50;;
38611;SDS011;24368;52.156;20.788;2024-01-10T14:29:26;62.50;;;38.20;;
38611;SDS011;24368;52.156;20.788;2024-01-10T14:34:27;59.50;;;35.60;;
38611;SDS011;24368;52.156;20.788;2024-01-10T14:39:29;66.20;;;38.50;;
38611;SDS011;24368;52.156;20.788;2024-01-10T14:44:31;50.40;;;31.70;;
38611;SDS011;24368;52.156;20.788;2024-01-10T14:49:33;56.50;;;31.70;;
38611;SDS011;24368;52.156;20.788;2024-01-10T14:54:35;56.80;;;35.90;;
38611;SDS011;24368;52.156;20.788;2024-01-10T14:59:36;59.10;;;33.40;;
38611;SDS011;24368;52.156;20.788;2024-01-10T15:04:40;57.10;;;33.60;;
38611;SDS011;24368;52.156;20.788;2024-01-10T15:09:42;58.00;;;35.30;;
38611;SDS011;24368;52.156;20.788;2024-01-10T15:14:45;61.60;;;37.30;;
38611;SDS011;24368;52.156;20.788;2024-01-10T15:19:47;57.10;;;33.90;;
38611;SDS011;24368;52.156;20.788;2024-01-10T15:24:49;55.40;;;33.60;;
38611;SDS011;24368;52.156;20.788;2024-01-10T15:29:51;57.30;;;34.00;;
38611;SDS011;24368;52.156;20.788;2024-01-10T15:34:52;56.90;;;34.00;;
38611;SDS011;24368;52.156;20.788;2024-01-10T15:39:54;59.00;;;33.50;;
38611;SDS011;24368;52.156;20.788;2024-01-10T15:44:56;54.80;;;30.70;;
38611;SDS011;24368;52.156;20.788;2024-01-10T15:49:58;53.60;;;29.50;;
38611;SDS011;24368;52.156;20.788;2024-01-10T15:55:00;61.50;;;35.30;;
38611;SDS011;24368;52.156;20.788;2024-01-10T16:00:03;53.90;;;30.20;;
38611;SDS011;24368;52.156;20.788;2024-01-10T16:05:06;56.40;;;31.60;;
38611;SDS011;24368;52.156;20.788;2024-01-10T16:10:09;70.30;;;37.00;;
38611;SDS011;24368;52.156;20.788;2024-01-10T16:15:11;49.20;;;29.40;;
38611;SDS011;24368;52.156;20.788;2024-01-10T16:20:14;54.80;;;30.10;;
38611;SDS011;24368;52.156;20.788;2024-01-10T16:25:16;52.60;;;28.20;;
38611;SDS011;24368;52.156;20.788;2024-01-10T16:30:18;57.40;;;31.40;;
38611;SDS011;24368;52.156;20.788;2024-01-10T16:35:20;52.90;;;28.40;;
38611;SDS011;24368;52.156;20.788;2024-01-10T16:40:22;54.00;;;31.20;;
38611;SDS011;24368;52.156;20.788;2024-01-10T16:45:24;50.80;;;28.20;;
38611;SDS011;24368;52.156;20.788;2024-01-10T16:50:27;56.40;;;31.70;;
38611;SDS011;24368;52.156;20.788;2024-01-10T16:55:32;45.90;;;24.50;;
38611;SDS011;24368;52.156;20.788;2024-01-10T17:00:33;60.90;;;33.40;;
38611;SDS011;24368;52.156;20.788;2024-01-10T17:05:36;63.60;;;33.40;;
38611;SDS011;24368;52.156;20.788;2024-01-10T17:10:38;64.10;;;35.00;;
38611;SDS011;24368;52.156;20.788;2024-01-10T17:15:39;70.90;;;39.20;;
38611;SDS011;24368;52.156;20.788;2024-01-10T17:20:41;60.90;;;31.60;;
38611;SDS011;24368;52.156;20.788;2024-01-10T17:25:44;72.10;;;41.00;;
38611;SDS011;24368;52.156;20.788;2024-01-10T17:30:46;64.90;;;36.90;;
38611;SDS011;24368;52.156;20.788;2024-01-10T17:35:48;67.10;;;36.00;;
38611;SDS011;24368;52.156;20.788;2024-01-10T17:40:50;66.80;;;35.20;;
38611;SDS011;24368;52.156;20.788;2024-01-10T17:45:53;66.80;;;35.50;;
38611;SDS011;24368;52.156;20.788;2024-01-10T17:50:55;60.70;;;33.80;;
38611;SDS011;24368;52.156;20.788;2024-01-10T17:55:57;81.10;;;43.30;;
38611;SDS011;24368;52.156;20.788;2024-01-10T18:00:59;76.50;;;42.90;;
38611;SDS011;24368;52.156;20.788;2024-01-10T18:06:01;92.20;;;51.40;;
38611;SDS011;24368;52.156;20.788;2024-01-10T18:11:03;83.00;;;45.20;;
38611;SDS011;24368;52.156;20.788;2024-01-10T18:16:05;68.30;;;37.70;;
38611;SDS011;24368;52.156;20.788;2024-01-10T18:21:07;66.90;;;35.80;;
38611;SDS011;24368;52.156;20.788;2024-01-10T18:26:09;79.20;;;44.00;;
38611;SDS011;24368;52.156;20.788;2024-01-10T18:31:11;71.20;;;41.80;;
38611;SDS011;24368;52.156;20.788;2024-01-10T18:36:14;77.20;;;41.00;;
38611;SDS011;24368;52.156;20.788;2024-01-10T18:41:16;78.40;;;40.60;;
38611;SDS011;24368;52.156;20.788;2024-01-10T18:46:18;77.80;;;40.00;;
38611;SDS011;24368;52.156;20.788;2024-01-10T18:51:19;76.30;;;35.70;;
38611;SDS011;24368;52.156;20.788;2024-01-10T18:56:22;62.90;;;34.70;;
38611;SDS011;24368;52.156;20.788;2024-01-10T19:01:24;82.60;;;43.50;;
38611;SDS011;24368;52.156;20.788;2024-01-10T19:06:26;71.50;;;37.90;;
38611;SDS011;24368;52.156;20.788;2024-01-10T19:11:27;57.20;;;29.40;;
38611;SDS011;24368;52.156;20.788;2024-01-10T19:16:30;55.80;;;29.50;;
38611;SDS011;24368;52.156;20.788;2024-01-10T19:21:31;59.20;;;29.80;;
38611;SDS011;24368;52.156;20.788;2024-01-10T19:26:33;74.80;;;41.50;;
38611;SDS011;24368;52.156;20.788;2024-01-10T19:31:35;58.10;;;30.30;;
38611;SDS011;24368;52.156;20.788;2024-01-10T19:36:37;67.70;;;33.40;;
38611;SDS011;24368;52.156;20.788;2024-01-10T19:41:39;62.60;;;30.80;;
38611;SDS011;24368;52.156;20.788;2024-01-10T19:46:41;62.30;;;33.20;;
38611;SDS011;24368;52.156;20.788;2024-01-10T19:51:44;66.40;;;35.60;;
38611;SDS011;24368;52.156;20.788;2024-01-10T19:56:48;46.00;;;25.80;;
38611;SDS011;24368;52.156;20.788;2024-01-10T20:01:50;61.00;;;32.60;;
38611;SDS011;24368;52.156;20.788;2024-01-10T20:06:52;55.00;;;31.40;;
38611;SDS011;24368;52.156;20.788;2024-01-10T20:11:53;48.00;;;26.20;;
38611;SDS011;24368;52.156;20.788;2024-01-10T20:16:55;44.40;;;24.70;;
38611;SDS011;24368;52.156;20.788;2024-01-10T20:21:57;51.00;;;27.90;;
38611;SDS011;24368;52.156;20.788;2024-01-10T20:26:59;38.80;;;22.60;;
38611;SDS011;24368;52.156;20.788;2024-01-10T20:32:01;50.50;;;26.60;;
38611;SDS011;24368;52.156;20.788;2024-01-10T20:37:03;36.00;;;19.80;;
38611;SDS011;24368;52.156;20.788;2024-01-10T20:42:05;42.70;;;22.40;;
38611;SDS011;24368;52.156;20.788;2024-01-10T20:47:07;59.50;;;31.30;;
38611;SDS011;24368;52.156;20.788;2024-01-10T20:52:10;71.60;;;40.90;;
38611;SDS011;24368;52.156;20.788;2024-01-10T20:57:12;42.70;;;25.30;;
38611;SDS011;24368;52.156;20.788;2024-01-10T21:02:14;74.70;;;34.70;;
38611;SDS011;24368;52.156;20.788;2024-01-10T21:07:16;86.70;;;47.60;;
38611;SDS011;24368;52.156;20.788;2024-01-10T21:12:19;75.50;;;42.30;;
38611;SDS011;24368;52.156;20.788;2024-01-10T21:17:20;86.90;;;47.50;;
38611;SDS011;24368;52.156;20.788;2024-01-10T21:22:22;70.40;;;38.90;;
38611;SDS011;24368;52.156;20.788;2024-01-10T21:27:24;70.00;;;35.90;;
38611;SDS011;24368;52.156;20.788;2024-01-10T21:32:28;62.60;;;30.60;;
38611;SDS011;24368;52.156;20.788;2024-01-10T21:37:30;53.00;;;31.00;;
38611;SDS011;24368;52.156;20.788;2024-01-10T21:42:32;91.20;;;46.90;;
38611;SDS011;24368;52.156;20.788;2024-01-10T21:47:33;50.70;;;29.90;;
38611;SDS011;24368;52.156;20.788;2024-01-10T21:52:35;84.80;;;45.10;;
38611;SDS011;24368;52.156;20.788;2024-01-10T21:57:38;75.50;;;41.10;;
38611;SDS011;24368;52.156;20.788;2024-01-10T22:02:40;76.40;;;42.40;;
38611;SDS011;24368;52.156;20.788;2024-01-10T22:07:41;76.30;;;39.40;;
38611;SDS011;24368;52.156;20.788;2024-01-10T22:12:43;69.80;;;37.30;;
38611;SDS011;24368;52.156;20.788;2024-01-10T22:17:46;81.20;;;45.50;;
38611;SDS011;24368;52.156;20.788;2024-01-10T22:22:47;86.90;;;46.80;;
38611;SDS011;24368;52.156;20.788;2024-01-10T22:27:49;87.80;;;48.10;;
38611;SDS011;24368;52.156;20.788;2024-01-10T22:32:52;79.60;;;39.00;;
38611;SDS011;24368;52.156;20.788;2024-01-10T22:37:54;77.70;;;41.10;;
38611;SDS011;24368;52.156;20.788;2024-01-10T22:42:56;83.20;;;46.40;;
38611;SDS011;24368;52.156;20.788;2024-01-10T22:47:58;83.00;;;45.00;;
38611;SDS011;24368;52.156;20.788;2024-01-10T22:53:00;69.20;;;39.70;;
38611;SDS011;24368;52.156;20.788;2024-01-10T22:58:01;68.10;;;34.00;;
38611;SDS011;24368;52.156;20.788;2024-01-10T23:03:03;63.40;;;33.50;;
38611;SDS011;24368;52.156;20.788;2024-01-10T23:08:05;73.80;;;38.30;;
38611;SDS011;24368;52.156;20.788;2024-01-10T23:13:08;46.50;;;26.10;;
38611;SDS011;24368;52.156;20.788;2024-01-10T23:18:10;82.40;;;44.30;;
38611;SDS011;24368;52.156;20.788;2024-01-10T23:23:12;43.60;;;21.50;;
38611;SDS011;24368;52.156;20.788;2024-01-10T23:28:13;81.30;;;43.50;;
38611;SDS011;24368;52.156;20.788;2024-01-10T23:33:15;76.10;;;41.80;;
38611;SDS011;24368;52.156;20.788;2024-01-10T23:38:17;86.40;;;44.60;;
38611;SDS011;24368;52.156;20.788;2024-01-10T23:43:19;75.10;;;40.00;;
38611;SDS011;24368;52.156;20.788;2024-01-10T23:48:21;81.20;;;40.80;;
38611;SDS011;24368;52.156;20.788;2024-01-10T23:53:24;73.80;;;38.80;;
38611;SDS011;24368;52.156;20.788;2024-01-10T23:58:26;73.60;;;39.90;;
